createdAt,value
2023-03-22T00:01:28.718Z,6.10
2023-03-22T00:03:56.215Z,5.75
2023-03-22T00:06:24.003Z,6.70
2023-03-22T00:08:53.300Z,7.10
2023-03-22T00:11:24.099Z,6.15
2023-03-22T00:13:52.502Z,6.03
2023-03-22T00:16:21.633Z,6.70
2023-03-22T00:18:48.655Z,5.80
2023-03-22T00:21:17.511Z,6.25
2023-03-22T00:23:45.500Z,6.88
2023-03-22T00:26:14.864Z,7.50
2023-03-22T00:28:43.564Z,6.88
2023-03-22T00:31:11.391Z,7.07
2023-03-22T00:33:38.920Z,5.85
2023-03-22T00:36:09.573Z,6.05
2023-03-22T00:38:44.954Z,5.88
2023-03-22T00:41:20.441Z,5.70
2023-03-22T00:43:49.321Z,5.60
2023-03-22T00:46:19.249Z,6.00
2023-03-22T00:48:47.742Z,5.95
2023-03-22T00:51:15.965Z,5.95
2023-03-22T00:53:43.938Z,5.45
2023-03-22T00:56:15.508Z,5.85
2023-03-22T00:58:46.467Z,5.90
2023-03-22T01:01:14.282Z,6.20
2023-03-22T01:03:43.531Z,6.07
2023-03-22T01:06:13.982Z,6.50
2023-03-22T01:08:41.590Z,6.28
2023-03-22T01:11:09.946Z,6.20
2023-03-22T01:13:37.733Z,6.60
2023-03-22T01:16:07.441Z,6.65
2023-03-22T01:18:35.901Z,6.30
2023-03-22T01:21:03.535Z,6.20
2023-03-22T01:23:30.761Z,5.97
2023-03-22T01:25:58.519Z,6.20
2023-03-22T01:28:27.166Z,6.20
2023-03-22T01:31:00.937Z,6.80
2023-03-22T01:33:27.863Z,6.65
2023-03-22T01:35:55.378Z,6.57
2023-03-22T01:38:22.779Z,6.97
2023-03-22T01:40:57.398Z,7.22
2023-03-22T01:43:25.241Z,6.82
2023-03-22T01:45:54.169Z,7.18
2023-03-22T01:48:34.799Z,7.18
2023-03-22T01:51:10.313Z,7.13
2023-03-22T01:54:12.940Z,7.07
2023-03-22T01:56:42.187Z,6.82
2023-03-22T01:59:15.988Z,7.63
2023-03-22T02:02:03.398Z,7.72
2023-03-22T02:04:39.154Z,8.65
2023-03-22T02:07:15.687Z,8.13
2023-03-22T02:09:46.996Z,6.88
2023-03-22T02:12:40.751Z,6.93
2023-03-22T02:15:42.799Z,7.07
2023-03-22T02:18:46.261Z,6.75
2023-03-22T02:21:21.896Z,7.75
2023-03-22T02:24:35.182Z,7.65
2023-03-22T02:27:18.395Z,8.90
2023-03-22T02:30:25.857Z,8.13
2023-03-22T02:33:24.877Z,7.47
2023-03-22T02:35:57.776Z,8.02
2023-03-22T02:39:01.519Z,8.07
2023-03-22T02:41:38.556Z,7.18
2023-03-22T02:44:26.055Z,7.45
2023-03-22T02:47:07.576Z,6.72
2023-03-22T02:49:41.459Z,6.45
2023-03-22T02:52:19.335Z,5.60
2023-03-22T02:55:09.816Z,6.65
2023-03-22T02:58:02.694Z,6.20
2023-03-22T03:00:32.832Z,6.43
2023-03-22T03:03:12.736Z,6.40
2023-03-22T03:05:55.168Z,6.25
2023-03-22T03:08:25.266Z,6.18
2023-03-22T03:10:53.874Z,6.53
2023-03-22T03:13:21.203Z,6.47
2023-03-22T03:15:57.417Z,6.82
2023-03-22T03:18:40.629Z,6.00
2023-03-22T03:21:52.737Z,7.10
2023-03-22T03:24:57.539Z,6.40
2023-03-22T03:27:37.256Z,6.55
2023-03-22T03:30:19.914Z,7.40
2023-03-22T03:33:18.005Z,7.18
2023-03-22T03:35:53.365Z,8.95
2023-03-22T03:38:27.592Z,7.28
2023-03-22T03:41:12.649Z,6.82
2023-03-22T03:43:41.406Z,8.25
2023-03-22T03:46:09.625Z,7.30
2023-03-22T03:48:53.488Z,7.38
2023-03-22T03:51:28.375Z,7.65
2023-03-22T03:53:57.326Z,6.68
2023-03-22T03:56:56.078Z,7.97
2023-03-22T03:59:32.674Z,6.55
2023-03-22T04:02:13.118Z,9.27
2023-03-22T04:04:45.025Z,6.80
2023-03-22T04:07:18.904Z,8.90
2023-03-22T04:09:49.688Z,6.55
2023-03-22T04:12:22.317Z,6.43
2023-03-22T04:15:12.139Z,6.97
2023-03-22T04:17:41.482Z,8.48
2023-03-22T04:20:12.449Z,7.95
2023-03-22T04:22:41.837Z,8.13
2023-03-22T04:25:13.367Z,8.52
2023-03-22T04:27:51.145Z,7.97
2023-03-22T04:30:20.257Z,6.50
2023-03-22T04:33:07.156Z,7.75
2023-03-22T04:35:56.792Z,6.25
2023-03-22T04:38:29.709Z,7.13
2023-03-22T04:40:57.816Z,6.10
2023-03-22T04:43:35.544Z,6.38
2023-03-22T04:46:10.170Z,6.88
2023-03-22T04:48:43.796Z,6.95
2023-03-22T04:51:11.934Z,7.13
2023-03-22T04:53:47.301Z,6.65
2023-03-22T04:56:15.661Z,6.78
2023-03-22T04:58:45.338Z,6.97
2023-03-22T05:01:16.698Z,6.22
2023-03-22T05:03:47.302Z,7.13
2023-03-22T05:06:16.375Z,6.78
2023-03-22T05:08:57.279Z,6.70
2023-03-22T05:11:27.647Z,6.40
2023-03-22T05:14:30.251Z,4.63
2023-03-22T05:16:57.729Z,6.40
2023-03-22T05:19:24.872Z,5.20
2023-03-22T05:21:58.084Z,4.70
2023-03-22T05:24:36.329Z,4.68
2023-03-22T05:27:04.138Z,5.45
2023-03-22T05:29:36.795Z,4.10
2023-03-22T05:32:11.710Z,4.28
2023-03-22T05:34:41.806Z,4.00
2023-03-22T05:37:21.078Z,4.60
2023-03-22T05:39:51.879Z,4.50
2023-03-22T05:42:19.588Z,4.10
2023-03-22T05:44:46.487Z,6.10
2023-03-22T05:47:13.821Z,5.03
2023-03-22T05:49:55.930Z,4.70
2023-03-22T05:52:24.968Z,4.35
2023-03-22T05:55:08.109Z,4.15
2023-03-22T05:57:41.297Z,3.75
2023-03-22T06:00:17.934Z,4.13
2023-03-22T06:03:15.142Z,3.95
2023-03-22T06:05:59.884Z,4.13
2023-03-22T06:09:15.998Z,4.22
2023-03-22T06:11:52.385Z,3.80
2023-03-22T06:14:33.231Z,3.60
2023-03-22T06:17:24.453Z,3.28
2023-03-22T06:19:55.121Z,3.22
2023-03-22T06:22:23.830Z,3.40
2023-03-22T06:24:52.629Z,3.67
2023-03-22T06:27:29.757Z,2.88
2023-03-22T06:29:56.684Z,3.47
2023-03-22T06:32:27.091Z,3.60
2023-03-22T06:34:56.250Z,3.70
2023-03-22T06:37:25.352Z,3.85
2023-03-22T06:39:53.251Z,3.63
2023-03-22T06:42:22.989Z,2.92
2023-03-22T06:45:01.072Z,3.53
2023-03-22T06:47:31.794Z,3.72
2023-03-22T06:50:01.822Z,2.97
2023-03-22T06:52:48.704Z,3.28
2023-03-22T06:55:16.002Z,2.72
2023-03-22T06:57:42.901Z,3.75
2023-03-22T07:00:10.994Z,3.25
2023-03-22T07:02:37.859Z,3.10
2023-03-22T07:05:16.459Z,3.20
2023-03-22T07:07:43.832Z,3.03
2023-03-22T07:10:10.809Z,2.97
2023-03-22T07:12:38.520Z,3.17
2023-03-22T07:15:11.076Z,2.88
2023-03-22T07:18:04.535Z,2.15
2023-03-22T07:20:38.433Z,2.38
2023-03-22T07:23:05.682Z,2.58
2023-03-22T07:25:39.037Z,2.25
2023-03-22T07:28:22.437Z,2.40
2023-03-22T07:30:49.420Z,3.20
2023-03-22T07:33:19.232Z,2.67
2023-03-22T07:35:46.414Z,2.63
2023-03-22T07:38:13.330Z,2.75
2023-03-22T07:40:41.464Z,2.78
2023-03-22T07:43:11.971Z,2.50
2023-03-22T07:46:07.985Z,2.70
2023-03-22T07:48:53.264Z,3.30
2023-03-22T07:54:07.701Z,2.33
2023-03-22T07:56:35.238Z,2.92
2023-03-22T07:59:02.237Z,2.38
2023-03-22T08:01:29.396Z,1.90
2023-03-22T08:04:05.247Z,2.20
2023-03-22T08:06:46.621Z,1.85
2023-03-22T08:09:13.571Z,1.73
2023-03-22T08:11:41.172Z,1.95
2023-03-22T08:14:09.292Z,1.85
2023-03-22T08:16:38.445Z,2.30
2023-03-22T08:19:06.059Z,2.25
2023-03-22T08:21:36.525Z,1.98
2023-03-22T08:24:06.301Z,1.60
2023-03-22T08:26:54.722Z,2.25
2023-03-22T08:29:32.121Z,1.73
2023-03-22T08:32:02.183Z,1.60
2023-03-22T08:34:31.206Z,2.90
2023-03-22T08:36:58.092Z,2.38
2023-03-22T08:39:26.113Z,2.17
2023-03-22T08:42:05.501Z,2.05
2023-03-22T08:44:32.625Z,1.90
2023-03-22T08:47:04.534Z,2.30
2023-03-22T08:49:32.359Z,1.73
2023-03-22T08:52:07.313Z,2.50
2023-03-22T08:54:42.776Z,1.70
2023-03-22T08:57:50.296Z,2.25
2023-03-22T09:00:25.140Z,2.00
2023-03-22T09:03:19.464Z,2.03
2023-03-22T09:05:46.540Z,1.75
2023-03-22T09:08:19.088Z,1.92
2023-03-22T09:13:21.898Z,2.60
2023-03-22T09:15:54.695Z,2.45
2023-03-22T09:18:27.696Z,2.20
2023-03-22T09:20:58.549Z,2.40
2023-03-22T09:23:32.160Z,1.33
2023-03-22T09:26:02.113Z,1.90
2023-03-22T09:28:30.908Z,2.30
2023-03-22T09:31:07.273Z,2.58
2023-03-22T09:33:38.498Z,2.72
2023-03-22T09:36:11.887Z,1.52
2023-03-22T09:39:06.541Z,1.25
2023-03-22T09:41:51.608Z,1.40
2023-03-22T09:44:26.986Z,1.80
2023-03-22T09:46:59.856Z,2.08
2023-03-22T09:49:52.647Z,3.10
2023-03-22T09:52:20.721Z,3.10
2023-03-22T09:54:47.705Z,2.10
2023-03-22T09:57:28.997Z,2.63
2023-03-22T10:00:20.887Z,1.80
2023-03-22T10:03:24.959Z,1.90
2023-03-22T10:06:22.957Z,1.77
2023-03-22T10:08:58.688Z,1.67
2023-03-22T10:12:14.248Z,1.92
2023-03-22T10:15:04.578Z,1.77
2023-03-22T10:17:32.281Z,2.42
2023-03-22T10:20:27.102Z,2.83
2023-03-22T10:22:58.160Z,3.70
2023-03-22T10:25:39.799Z,2.20
2023-03-22T10:28:31.412Z,1.75
2023-03-22T10:30:59.036Z,2.08
2023-03-22T10:33:50.512Z,1.50
2023-03-22T10:36:22.797Z,1.70
2023-03-22T10:38:57.621Z,1.10
2023-03-22T10:41:28.619Z,1.77
2023-03-22T10:44:00.692Z,2.47
2023-03-22T10:46:35.913Z,2.30
2023-03-22T10:49:06.271Z,1.50
2023-03-22T10:51:47.720Z,2.40
2023-03-22T10:54:19.082Z,1.33
2023-03-22T10:56:46.289Z,2.30
2023-03-22T10:59:51.133Z,2.60
2023-03-22T11:02:26.405Z,2.50
2023-03-22T11:05:04.357Z,2.05
2023-03-22T11:07:42.646Z,1.88
2023-03-22T11:10:09.609Z,2.10
2023-03-22T11:13:18.901Z,2.97
2023-03-22T11:16:02.230Z,2.13
2023-03-22T11:18:33.451Z,2.40
2023-03-22T11:21:07.890Z,2.50
2023-03-22T11:23:38.589Z,1.52
2023-03-22T11:26:13.320Z,1.67
2023-03-22T11:28:50.287Z,1.83
2023-03-22T11:31:21.143Z,1.60
2023-03-22T11:34:01.160Z,1.63
2023-03-22T11:36:29.204Z,2.72
2023-03-22T11:39:06.051Z,2.78
2023-03-22T11:41:39.241Z,2.63
2023-03-22T11:44:13.234Z,1.52
2023-03-22T11:46:49.680Z,1.58
2023-03-22T11:49:18.337Z,1.55
2023-03-22T11:51:46.218Z,1.73
2023-03-22T11:54:35.586Z,1.70
2023-03-22T11:57:15.562Z,1.88
2023-03-22T12:00:15.085Z,1.73
2023-03-22T12:02:51.658Z,2.40
2023-03-22T12:05:27.189Z,1.55
2023-03-22T12:08:17.908Z,2.28
2023-03-22T12:10:53.607Z,2.92
2023-03-22T12:13:32.942Z,1.70
2023-03-22T12:16:05.925Z,1.40
2023-03-22T12:18:44.570Z,1.70
2023-03-22T12:21:11.971Z,1.60
2023-03-22T12:23:39.258Z,1.73
2023-03-22T12:26:14.407Z,1.95
2023-03-22T12:28:59.044Z,3.40
2023-03-22T12:32:11.816Z,2.35
2023-03-22T12:34:51.084Z,1.98
2023-03-22T12:37:42.320Z,1.92
2023-03-22T12:40:38.429Z,2.50
2023-03-22T12:43:21.747Z,2.58
2023-03-22T12:45:59.424Z,2.72
2023-03-22T12:48:50.528Z,2.75
2023-03-22T12:51:17.688Z,3.00
2023-03-22T12:53:53.995Z,2.45
2023-03-22T12:56:29.594Z,1.67
2023-03-22T12:59:04.536Z,1.65
2023-03-22T13:02:01.061Z,1.73
2023-03-22T13:04:37.023Z,1.73
2023-03-22T13:07:31.066Z,2.70
2023-03-22T13:10:00.195Z,2.60
2023-03-22T13:12:31.893Z,1.98
2023-03-22T13:15:04.273Z,1.70
2023-03-22T13:17:33.412Z,2.20
2023-03-22T13:20:06.754Z,1.45
2023-03-22T13:22:37.259Z,2.70
2023-03-22T13:25:12.310Z,1.92
2023-03-22T13:30:21.744Z,2.25
2023-03-22T13:32:54.609Z,1.77
2023-03-22T13:35:41.942Z,1.60
2023-03-22T13:38:20.151Z,1.95
2023-03-22T13:41:03.924Z,2.00
2023-03-22T13:43:44.587Z,1.77
2023-03-22T13:46:44.658Z,2.00
2023-03-22T13:49:42.580Z,2.22
2023-03-22T13:52:24.134Z,2.70
2023-03-22T13:54:54.165Z,2.67
2023-03-22T13:57:56.928Z,1.90
2023-03-22T14:00:30.220Z,2.72
2023-03-22T14:03:04.117Z,2.95
2023-03-22T14:05:36.476Z,3.20
2023-03-22T14:08:04.363Z,2.53
2023-03-22T14:10:43.375Z,2.15
2023-03-22T14:13:43.638Z,3.10
2023-03-22T14:16:35.683Z,2.00
2023-03-22T14:19:07.139Z,1.40
2023-03-22T14:21:41.376Z,1.50
